Decoded Metar for KASX (ASHLAND in WI, USA) (IATA:ASX) | Meteo·Mobile Aviation Weather
aviador You're here:

KASX Decoded Metar

ASHLAND in WI, USA
Report Time2019-10-20 22:53:00
UTC Time2019-10-20 23:37:54
Flight Rules vfr VFR
Wind360° at 05 kt
W.Decomp.*RWY 02: 4.8 kt HW 1.5 kt LCW
RWY 31: 3.1 kt HW 3.9 kt RCW
Visibility9999 m
Phenomena:N/A
Clouds:N/A
Expected CloudBase > 800 ft AGL from Temp-Dew spread
CeilingNone
Temp08°C (ISA -5)
Dew Point06°C (87% RH)
AAT5.3°C
QNH1012 hPa
Density Alt344 ft
Elevation823 ft
Report Wrong Elevation
Raw Report
KASX 202253Z AUTO 36005KT 10SM CLR 08/06 A2989 RMK AO2 SLP130
T00780056=

Extra information for KASX:More info

Metar Taf Metar & Taf Last 4 Metars F.Rules Stats Wind Profile Meteogram Temp Stats Airport Information Weather charts Add Link Nearby VenuesMetar ALERT Operation Metar Decoded Social comments

AIRNAV info for KASX